Flinterduin — PEBT — position and weather

sailwx.info

Track history (hours):
 
Tides and Currents Weather Stations Pressure Air Temp Water Temp Dewpoint Dewpoint Depression Visibility Wind Speed Wind Dir Waves Ship Positions

Flinterduin

Last reported at 2014-Sep-02 20:33 UTC. Time now 2014-Sep-02 23:59 UTC.
Position N 42°53' E 010°33'.

Length 112 m; beam 15 m.

Type: Cargo ship. MMSI: 246484000.

Date/timePositionNaut miles runAvg speedWind from/ knotsBaromVisibWave heightAir tempDewpointWater temp
2014-Sep-02 20:33N 42°53' E 010°33'12 9.2
2014-Sep-02 19:13N 42°41' E 010°30'422 9.0
2014-Aug-31 20:03N 37°42' E 003°59'711.9
2014-Aug-31 19:26N 37°41' E 003°50'20211.6
2014-Aug-31 02:07N 36°48' W 000°14'9011.6
2014-Aug-30 18:21N 36°24' W 002°02'16412.8
2014-Aug-30 05:30N 35°58' W 005°23'6211.9
2014-Aug-30 00:20N 35°60' W 006°39'912.2
2014-Aug-29 23:34N 36°02' W 006°51'1212.1
2014-Aug-29 22:34N 36°05' W 007°05'1412.0
2014-Aug-29 21:26N 36°09' W 007°22'1112.1
2014-Aug-29 20:32N 36°11' W 007°35'1212.1
2014-Aug-29 19:34N 36°14' W 007°49'1212.0
2014-Aug-29 18:34N 36°18' W 008°03'1212.1
2014-Aug-29 17:33N 36°21' W 008°17'1212.1
2014-Aug-29 16:33N 36°24' W 008°32'1212.1
2014-Aug-29 15:33N 36°27' W 008°46'1212.2
2014-Aug-29 14:33N 36°31' W 009°01'1212.3
2014-Aug-29 13:33N 36°34' W 009°16'1311.6
2014-Aug-29 12:25N 36°43' W 009°28'1411.2
2014-Aug-29 11:09N 36°56' W 009°35'712.0
2014-Aug-29 10:33N 37°03' W 009°37'1212.0
2014-Aug-29 09:32N 37°15' W 009°41'  
2014-Aug-25 08:33N 50°33' E 000°23'1010.0
2014-Aug-25 07:33N 50°36' E 000°38'1211.7
2014-Aug-25 06:33N 50°43' E 000°53'2813.3
2014-Aug-25 04:29N 51°01' E 001°27'1112.0
2014-Aug-25 03:33N 51°09' E 001°39'1111.0
2014-Aug-25 02:34N 51°17' E 001°50'1010.1
2014-Aug-25 01:33N 51°25' E 002°00'1211.1
2014-Aug-25 00:29N 51°21' E 002°18'1010.1
2014-Aug-24 23:32N 51°23' E 002°33'9 9.3
2014-Aug-24 22:32N 51°22' E 002°48'1211.6
2014-Aug-24 21:33N 51°24' E 003°06'1211.9
2014-Aug-24 20:33N 51°25' E 003°25'1110.9
2014-Aug-24 19:33N 51°25' E 003°42'7 6.9
2014-Aug-24 18:34N 51°20' E 003°49'3 3.3
2014-Aug-24 17:34N 51°16' E 003°50'6 6.1
2014-Aug-24 16:33N 51°11' E 003°48'0 0.0
2014-Aug-24 15:33N 51°11' E 003°48'0 0.0
2014-Aug-24 14:33N 51°11' E 003°48'0 0.0
2014-Aug-24 13:33N 51°11' E 003°48'0 0.0
2014-Aug-24 12:33N 51°11' E 003°48'0 0.0
2014-Aug-24 11:33N 51°11' E 003°48'0 0.0
2014-Aug-24 10:33N 51°11' E 003°48'0 0.0
2014-Aug-24 09:33N 51°11' E 003°48'0 0.0
2014-Aug-24 08:33N 51°11' E 003°48'0 0.0
2014-Aug-24 07:33N 51°11' E 003°48'0 0.0
2014-Aug-24 06:33N 51°11' E 003°48'0 0.0
2014-Aug-24 05:33N 51°11' E 003°48'0 0.0
2014-Aug-24 04:33N 51°11' E 003°48'0 0.0
2014-Aug-24 03:33N 51°11' E 003°48'0 0.0
2014-Aug-24 02:33N 51°11' E 003°48'0 0.0
2014-Aug-24 01:33N 51°11' E 003°48'0 0.0
2014-Aug-24 00:33N 51°11' E 003°48'0 0.0
2014-Aug-23 23:33N 51°11' E 003°48'0 0.0
2014-Aug-23 22:33N 51°11' E 003°48'0 0.0
2014-Aug-23 21:33N 51°11' E 003°48'  
Track history (hours):
 
Tides and Currents Weather Stations Pressure Air Temp Water Temp Dewpoint Dewpoint Depression Visibility Wind Speed Wind Dir Waves Ship Positions

Flinterduin

Last reported at 2014-Sep-02 20:33 UTC. Time now 2014-Sep-02 23:59 UTC.
Position N 42°53' E 010°33'.

Length 112 m; beam 15 m.

Type: Cargo ship. MMSI: 246484000.

Date/timePositionNaut miles runAvg speedWind from/ knotsBaromVisibWave heightAir tempDewpointWater temp
2014-Sep-02 20:33N 42°53' E 010°33'12 9.2
2014-Sep-02 19:13N 42°41' E 010°30'422 9.0
2014-Aug-31 20:03N 37°42' E 003°59'711.9
2014-Aug-31 19:26N 37°41' E 003°50'20211.6
2014-Aug-31 02:07N 36°48' W 000°14'9011.6
2014-Aug-30 18:21N 36°24' W 002°02'16412.8
2014-Aug-30 05:30N 35°58' W 005°23'6211.9
2014-Aug-30 00:20N 35°60' W 006°39'912.2
2014-Aug-29 23:34N 36°02' W 006°51'1212.1
2014-Aug-29 22:34N 36°05' W 007°05'1412.0
2014-Aug-29 21:26N 36°09' W 007°22'1112.1
2014-Aug-29 20:32N 36°11' W 007°35'1212.1
2014-Aug-29 19:34N 36°14' W 007°49'1212.0
2014-Aug-29 18:34N 36°18' W 008°03'1212.1
2014-Aug-29 17:33N 36°21' W 008°17'1212.1
2014-Aug-29 16:33N 36°24' W 008°32'1212.1
2014-Aug-29 15:33N 36°27' W 008°46'1212.2
2014-Aug-29 14:33N 36°31' W 009°01'1212.3
2014-Aug-29 13:33N 36°34' W 009°16'1311.6
2014-Aug-29 12:25N 36°43' W 009°28'1411.2
2014-Aug-29 11:09N 36°56' W 009°35'712.0
2014-Aug-29 10:33N 37°03' W 009°37'1212.0
2014-Aug-29 09:32N 37°15' W 009°41'  
2014-Aug-25 08:33N 50°33' E 000°23'1010.0
2014-Aug-25 07:33N 50°36' E 000°38'1211.7
2014-Aug-25 06:33N 50°43' E 000°53'2813.3
2014-Aug-25 04:29N 51°01' E 001°27'1112.0
2014-Aug-25 03:33N 51°09' E 001°39'1111.0
2014-Aug-25 02:34N 51°17' E 001°50'1010.1
2014-Aug-25 01:33N 51°25' E 002°00'1211.1
2014-Aug-25 00:29N 51°21' E 002°18'1010.1
2014-Aug-24 23:32N 51°23' E 002°33'9 9.3
2014-Aug-24 22:32N 51°22' E 002°48'1211.6
2014-Aug-24 21:33N 51°24' E 003°06'1211.9
2014-Aug-24 20:33N 51°25' E 003°25'1110.9
2014-Aug-24 19:33N 51°25' E 003°42'7 6.9
2014-Aug-24 18:34N 51°20' E 003°49'3 3.3
2014-Aug-24 17:34N 51°16' E 003°50'6 6.1
2014-Aug-24 16:33N 51°11' E 003°48'0 0.0
2014-Aug-24 15:33N 51°11' E 003°48'0 0.0
2014-Aug-24 14:33N 51°11' E 003°48'0 0.0
2014-Aug-24 13:33N 51°11' E 003°48'0 0.0
2014-Aug-24 12:33N 51°11' E 003°48'0 0.0
2014-Aug-24 11:33N 51°11' E 003°48'0 0.0
2014-Aug-24 10:33N 51°11' E 003°48'0 0.0
2014-Aug-24 09:33N 51°11' E 003°48'0 0.0
2014-Aug-24 08:33N 51°11' E 003°48'0 0.0
2014-Aug-24 07:33N 51°11' E 003°48'0 0.0
2014-Aug-24 06:33N 51°11' E 003°48'0 0.0
2014-Aug-24 05:33N 51°11' E 003°48'0 0.0
2014-Aug-24 04:33N 51°11' E 003°48'0 0.0
2014-Aug-24 03:33N 51°11' E 003°48'0 0.0
2014-Aug-24 02:33N 51°11' E 003°48'0 0.0
2014-Aug-24 01:33N 51°11' E 003°48'0 0.0
2014-Aug-24 00:33N 51°11' E 003°48'0 0.0
2014-Aug-23 23:33N 51°11' E 003°48'0 0.0
2014-Aug-23 22:33N 51°11' E 003°48'0 0.0
2014-Aug-23 21:33N 51°11' E 003°48'  

Dump ship's entire track history